sensor_id;sensor_type;location;lat;lon;timestamp;pressure;altitude;pressure_sealevel;temperature;humidity
19751;BME280;4663;49.120;9.730;2023-02-03T00:00:56;99222.03;;;1.92;92.51
19751;BME280;4663;49.120;9.730;2023-02-03T00:03:21;99218.63;;;1.90;93.60
19751;BME280;4663;49.120;9.730;2023-02-03T00:05:47;99218.22;;;1.69;93.00
19751;BME280;4663;49.120;9.730;2023-02-03T00:08:13;99213.59;;;1.85;93.09
19751;BME280;4663;49.120;9.730;2023-02-03T00:10:39;99213.78;;;1.82;92.78
19751;BME280;4663;49.120;9.730;2023-02-03T00:13:06;99212.06;;;1.96;93.57
19751;BME280;4663;49.120;9.730;2023-02-03T00:15:32;99223.47;;;1.70;93.48
19751;BME280;4663;49.120;9.730;2023-02-03T00:17:58;99215.09;;;1.89;92.70
19751;BME280;4663;49.120;9.730;2023-02-03T00:20:23;99226.38;;;1.80;93.65
19751;BME280;4663;49.120;9.730;2023-02-03T00:22:50;99217.56;;;1.93;93.66
19751;BME280;4663;49.120;9.730;2023-02-03T00:25:15;99227.13;;;1.82;93.67
19751;BME280;4663;49.120;9.730;2023-02-03T00:27:41;99237.31;;;1.75;94.17
19751;BME280;4663;49.120;9.730;2023-02-03T00:30:07;99240.75;;;1.77;94.52
19751;BME280;4663;49.120;9.730;2023-02-03T00:32:33;99231.91;;;1.77;95.09
19751;BME280;4663;49.120;9.730;2023-02-03T00:34:58;99231.63;;;1.67;95.43
19751;BME280;4663;49.120;9.730;2023-02-03T00:37:23;99219.78;;;1.86;93.03
19751;BME280;4663;49.120;9.730;2023-02-03T00:39:49;99211.72;;;1.87;92.88
19751;BME280;4663;49.120;9.730;2023-02-03T00:42:14;99216.72;;;1.92;92.94
19751;BME280;4663;49.120;9.730;2023-02-03T00:44:40;99211.72;;;1.87;92.40
19751;BME280;4663;49.120;9.730;2023-02-03T00:47:06;99210.56;;;1.92;93.80
19751;BME280;4663;49.120;9.730;2023-02-03T00:49:31;99213.56;;;2.00;92.79
19751;BME280;4663;49.120;9.730;2023-02-03T00:51:56;99214.75;;;2.09;92.70
19751;BME280;4663;49.120;9.730;2023-02-03T00:54:22;99229.28;;;1.90;93.59
19751;BME280;4663;49.120;9.730;2023-02-03T00:56:47;99227.28;;;1.94;94.37
19751;BME280;4663;49.120;9.730;2023-02-03T00:59:12;99224.53;;;1.53;96.16
19751;BME280;4663;49.120;9.730;2023-02-03T01:01:38;99212.34;;;1.63;94.70
19751;BME280;4663;49.120;9.730;2023-02-03T01:04:03;99208.63;;;1.94;94.12
19751;BME280;4663;49.120;9.730;2023-02-03T01:06:29;99194.50;;;1.79;94.13
19751;BME280;4663;49.120;9.730;2023-02-03T01:08:55;99194.00;;;1.86;93.74
19751;BME280;4663;49.120;9.730;2023-02-03T01:11:23;99205.06;;;1.80;94.77
19751;BME280;4663;49.120;9.730;2023-02-03T01:13:50;99213.16;;;1.79;95.19
19751;BME280;4663;49.120;9.730;2023-02-03T01:16:18;99218.19;;;1.83;93.48
19751;BME280;4663;49.120;9.730;2023-02-03T01:18:44;99214.75;;;2.09;93.30
19751;BME280;4663;49.120;9.730;2023-02-03T01:23:40;99215.72;;;1.80;95.03
19751;BME280;4663;49.120;9.730;2023-02-03T01:26:11;99210.34;;;1.95;93.94
19751;BME280;4663;49.120;9.730;2023-02-03T01:28:36;99206.28;;;1.89;93.85
19751;BME280;4663;49.120;9.730;2023-02-03T01:33:38;99191.47;;;1.98;93.46
19751;BME280;4663;49.120;9.730;2023-02-03T01:36:10;99189.53;;;1.87;93.24
19751;BME280;4663;49.120;9.730;2023-02-03T01:38:36;99194.41;;;1.80;93.48
19751;BME280;4663;49.120;9.730;2023-02-03T01:41:03;99186.44;;;1.80;93.87
19751;BME280;4663;49.120;9.730;2023-02-03T01:43:38;99188.75;;;1.72;94.64
19751;BME280;4663;49.120;9.730;2023-02-03T01:46:29;99188.91;;;1.83;94.60
19751;BME280;4663;49.120;9.730;2023-02-03T01:51:24;99179.22;;;1.95;93.36
19751;BME280;4663;49.120;9.730;2023-02-03T01:53:51;99193.59;;;1.93;94.01
19751;BME280;4663;49.120;9.730;2023-02-03T01:56:18;99183.81;;;1.93;93.97
19751;BME280;4663;49.120;9.730;2023-02-03T01:58:46;99181.97;;;1.94;93.83
19751;BME280;4663;49.120;9.730;2023-02-03T02:01:12;99170.84;;;2.01;92.64
19751;BME280;4663;49.120;9.730;2023-02-03T02:03:42;99155.06;;;1.98;92.89
19751;BME280;4663;49.120;9.730;2023-02-03T02:06:11;99145.25;;;1.99;93.54
19751;BME280;4663;49.120;9.730;2023-02-03T02:08:37;99144.50;;;1.97;93.40
19751;BME280;4663;49.120;9.730;2023-02-03T02:11:04;99140.97;;;1.96;92.85
19751;BME280;4663;49.120;9.730;2023-02-03T02:13:32;99142.91;;;2.20;91.87
19751;BME280;4663;49.120;9.730;2023-02-03T02:33:04;99079.38;;;2.01;91.54
19751;BME280;4663;49.120;9.730;2023-02-03T02:43:54;99125.63;;;1.87;94.36
19751;BME280;4663;49.120;9.730;2023-02-03T02:46:29;99122.66;;;1.92;94.03
19751;BME280;4663;49.120;9.730;2023-02-03T02:49:04;99125.84;;;1.97;92.07
19751;BME280;4663;49.120;9.730;2023-02-03T02:51:31;99125.72;;;1.85;93.26
19751;BME280;4663;49.120;9.730;2023-02-03T02:54:02;99123.94;;;1.99;92.89
19751;BME280;4663;49.120;9.730;2023-02-03T02:56:31;99115.72;;;2.02;93.97
19751;BME280;4663;49.120;9.730;2023-02-03T02:59:00;99122.66;;;1.92;93.99
19751;BME280;4663;49.120;9.730;2023-02-03T03:01:27;99113.78;;;1.91;93.86
19751;BME280;4663;49.120;9.730;2023-02-03T03:03:52;99107.97;;;1.99;93.41
19751;BME280;4663;49.120;9.730;2023-02-03T03:06:31;99096.84;;;1.79;93.09
19751;BME280;4663;49.120;9.730;2023-02-03T03:09:06;99098.47;;;1.95;92.35
19751;BME280;4663;49.120;9.730;2023-02-03T03:11:50;99090.25;;;1.98;92.22
19751;BME280;4663;49.120;9.730;2023-02-03T03:14:18;99092.50;;;2.04;92.44
19751;BME280;4663;49.120;9.730;2023-02-03T03:16:50;99102.53;;;2.13;92.63
19751;BME280;4663;49.120;9.730;2023-02-03T03:19:20;99110.69;;;1.84;94.02
19751;BME280;4663;49.120;9.730;2023-02-03T03:21:54;99106.66;;;1.92;93.95
19751;BME280;4663;49.120;9.730;2023-02-03T03:24:25;99105.06;;;2.02;94.19
19751;BME280;4663;49.120;9.730;2023-02-03T03:26:56;99109.88;;;1.97;93.32
19751;BME280;4663;49.120;9.730;2023-02-03T03:29:30;99117.56;;;2.01;92.73
19751;BME280;4663;49.120;9.730;2023-02-03T03:32:00;99122.97;;;2.00;93.04
19751;BME280;4663;49.120;9.730;2023-02-03T03:34:27;99127.03;;;2.06;93.33
19751;BME280;4663;49.120;9.730;2023-02-03T03:39:35;99144.78;;;1.92;93.82
19751;BME280;4663;49.120;9.730;2023-02-03T03:44:56;99153.78;;;2.04;93.36
19751;BME280;4663;49.120;9.730;2023-02-03T03:47:31;99148.22;;;1.94;93.02
19751;BME280;4663;49.120;9.730;2023-02-03T03:49:58;99163.59;;;2.17;92.23
19751;BME280;4663;49.120;9.730;2023-02-03T03:52:29;99167.22;;;2.02;92.77
19751;BME280;4663;49.120;9.730;2023-02-03T03:54:58;99159.97;;;2.18;92.52
19751;BME280;4663;49.120;9.730;2023-02-03T03:57:33;99166.81;;;2.09;92.47
19751;BME280;4663;49.120;9.730;2023-02-03T04:00:02;99160.91;;;1.91;93.71
19751;BME280;4663;49.120;9.730;2023-02-03T04:02:28;99156.84;;;1.98;93.91
19751;BME280;4663;49.120;9.730;2023-02-03T04:04:57;99152.81;;;2.05;93.91
19751;BME280;4663;49.120;9.730;2023-02-03T04:07:43;99136.66;;;1.68;94.61
19751;BME280;4663;49.120;9.730;2023-02-03T04:10:37;99137.66;;;1.93;93.86
19751;BME280;4663;49.120;9.730;2023-02-03T04:13:04;99130.09;;;1.99;93.12
19751;BME280;4663;49.120;9.730;2023-02-03T04:15:30;99133.94;;;1.95;93.07
19751;BME280;4663;49.120;9.730;2023-02-03T04:17:56;99122.91;;;2.14;92.62
19751;BME280;4663;49.120;9.730;2023-02-03T04:20:23;99135.28;;;2.28;92.31
19751;BME280;4663;49.120;9.730;2023-02-03T04:22:49;99125.78;;;2.24;91.36
19751;BME280;4663;49.120;9.730;2023-02-03T04:25:14;99125.34;;;2.05;91.72
19751;BME280;4663;49.120;9.730;2023-02-03T04:27:40;99139.50;;;2.05;91.92
19751;BME280;4663;49.120;9.730;2023-02-03T04:30:06;99120.56;;;2.23;90.91
19751;BME280;4663;49.120;9.730;2023-02-03T04:32:31;99136.88;;;2.31;92.12
19751;BME280;4663;49.120;9.730;2023-02-03T04:35:00;99147.41;;;2.20;92.26
19751;BME280;4663;49.120;9.730;2023-02-03T04:37:25;99146.47;;;2.21;91.74
19751;BME280;4663;49.120;9.730;2023-02-03T04:39:54;99153.81;;;2.17;92.16
19751;BME280;4663;49.120;9.730;2023-02-03T04:42:20;99158.47;;;2.13;92.44
19751;BME280;4663;49.120;9.730;2023-02-03T04:44:46;99147.81;;;2.00;92.17
19751;BME280;4663;49.120;9.730;2023-02-03T04:47:12;99132.63;;;2.28;92.10
19751;BME280;4663;49.120;9.730;2023-02-03T04:49:38;99139.31;;;2.21;92.24
19751;BME280;4663;49.120;9.730;2023-02-03T04:52:03;99128.44;;;2.11;92.61
19751;BME280;4663;49.120;9.730;2023-02-03T04:54:29;99123.84;;;2.13;92.43
19751;BME280;4663;49.120;9.730;2023-02-03T04:56:54;99126.31;;;2.17;92.14
19751;BME280;4663;49.120;9.730;2023-02-03T04:59:20;99137.41;;;2.10;93.30
19751;BME280;4663;49.120;9.730;2023-02-03T05:01:45;99150.25;;;2.03;93.77
19751;BME280;4663;49.120;9.730;2023-02-03T05:04:10;99163.91;;;2.12;94.32
19751;BME280;4663;49.120;9.730;2023-02-03T05:06:36;99156.34;;;2.06;94.46
19751;BME280;4663;49.120;9.730;2023-02-03T05:09:01;99151.06;;;2.19;93.99
19751;BME280;4663;49.120;9.730;2023-02-03T05:11:27;99142.28;;;2.17;93.75
19751;BME280;4663;49.120;9.730;2023-02-03T05:13:53;99130.78;;;2.29;92.83
19751;BME280;4663;49.120;9.730;2023-02-03T05:16:18;99135.59;;;2.24;93.23
19751;BME280;4663;49.120;9.730;2023-02-03T05:18:44;99143.06;;;2.19;93.55
19751;BME280;4663;49.120;9.730;2023-02-03T05:21:09;99144.66;;;2.21;93.01
19751;BME280;4663;49.120;9.730;2023-02-03T05:23:34;99145.91;;;2.15;93.94
19751;BME280;4663;49.120;9.730;2023-02-03T05:26:00;99154.66;;;2.05;93.52
19751;BME280;4663;49.120;9.730;2023-02-03T05:28:25;99157.44;;;2.29;93.57
19751;BME280;4663;49.120;9.730;2023-02-03T05:30:51;99150.91;;;2.20;93.11
19751;BME280;4663;49.120;9.730;2023-02-03T05:33:16;99141.13;;;2.21;93.42
19751;BME280;4663;49.120;9.730;2023-02-03T05:35:41;99147.09;;;2.11;94.20
19751;BME280;4663;49.120;9.730;2023-02-03T05:38:07;99143.75;;;1.95;94.70
19751;BME280;4663;49.120;9.730;2023-02-03T05:40:33;99149.56;;;2.14;94.79
19751;BME280;4663;49.120;9.730;2023-02-03T05:43:17;99145.84;;;1.89;95.27
19751;BME280;4663;49.120;9.730;2023-02-03T05:45:43;99135.78;;;2.08;94.56
19751;BME280;4663;49.120;9.730;2023-02-03T05:48:09;99156.97;;;1.69;95.17
19751;BME280;4663;49.120;9.730;2023-02-03T05:50:35;99159.50;;;1.98;95.57
19751;BME280;4663;49.120;9.730;2023-02-03T05:53:02;99157.13;;;2.21;95.03
19751;BME280;4663;49.120;9.730;2023-02-03T05:55:28;99151.84;;;1.93;94.59
19751;BME280;4663;49.120;9.730;2023-02-03T05:57:54;99152.47;;;1.97;94.59
19751;BME280;4663;49.120;9.730;2023-02-03T06:00:21;99162.88;;;2.14;94.02
19751;BME280;4663;49.120;9.730;2023-02-03T06:02:53;99162.84;;;2.01;93.83
19751;BME280;4663;49.120;9.730;2023-02-03T06:05:20;99149.28;;;1.92;94.66
19751;BME280;4663;49.120;9.730;2023-02-03T06:07:46;99134.16;;;2.05;94.25
19751;BME280;4663;49.120;9.730;2023-02-03T06:10:12;99129.50;;;2.09;94.82
19751;BME280;4663;49.120;9.730;2023-02-03T06:12:38;99120.00;;;2.05;94.11
19751;BME280;4663;49.120;9.730;2023-02-03T06:15:03;99117.53;;;1.88;94.69
19751;BME280;4663;49.120;9.730;2023-02-03T06:17:29;99106.06;;;2.14;94.42
19751;BME280;4663;49.120;9.730;2023-02-03T06:19:54;99096.03;;;2.05;94.23
19751;BME280;4663;49.120;9.730;2023-02-03T06:22:20;99101.25;;;1.93;94.19
19751;BME280;4663;49.120;9.730;2023-02-03T06:24:45;99101.78;;;2.11;94.87
19751;BME280;4663;49.120;9.730;2023-02-03T06:27:13;99108.41;;;2.06;94.02
19751;BME280;4663;49.120;9.730;2023-02-03T06:29:38;99110.22;;;2.18;94.19
19751;BME280;4663;49.120;9.730;2023-02-03T06:32:03;99108.81;;;2.12;93.95
19751;BME280;4663;49.120;9.730;2023-02-03T06:34:29;99106.25;;;2.11;94.04
19751;BME280;4663;49.120;9.730;2023-02-03T06:36:54;99094.34;;;2.30;93.58
19751;BME280;4663;49.120;9.730;2023-02-03T06:39:19;99098.41;;;2.35;93.34
19751;BME280;4663;49.120;9.730;2023-02-03T06:41:45;99083.03;;;2.26;93.63
19751;BME280;4663;49.120;9.730;2023-02-03T06:44:10;99090.50;;;2.21;94.05
19751;BME280;4663;49.120;9.730;2023-02-03T06:46:36;99094.44;;;2.28;93.36
19751;BME280;4663;49.120;9.730;2023-02-03T06:49:01;99091.47;;;2.20;92.97
19751;BME280;4663;49.120;9.730;2023-02-03T06:51:27;99091.16;;;2.24;93.34
19751;BME280;4663;49.120;9.730;2023-02-03T06:53:52;99098.38;;;2.22;92.87
19751;BME280;4663;49.120;9.730;2023-02-03T06:56:17;99100.09;;;2.36;92.75
19751;BME280;4663;49.120;9.730;2023-02-03T06:58:43;99097.97;;;2.15;92.90
19751;BME280;4663;49.120;9.730;2023-02-03T07:01:08;99111.47;;;1.99;93.96
19751;BME280;4663;49.120;9.730;2023-02-03T07:03:34;99112.88;;;2.18;94.38
19751;BME280;4663;49.120;9.730;2023-02-03T07:05:59;99099.97;;;2.12;93.19
19751;BME280;4663;49.120;9.730;2023-02-03T07:08:24;99104.13;;;2.29;93.55
19751;BME280;4663;49.120;9.730;2023-02-03T07:10:53;99099.88;;;2.13;93.64
19751;BME280;4663;49.120;9.730;2023-02-03T07:13:19;99088.47;;;2.11;93.43
19751;BME280;4663;49.120;9.730;2023-02-03T07:15:44;99083.69;;;2.30;93.27
19751;BME280;4663;49.120;9.730;2023-02-03T07:18:09;99090.59;;;2.19;93.54
19751;BME280;4663;49.120;9.730;2023-02-03T07:20:35;99092.22;;;2.09;93.80
19751;BME280;4663;49.120;9.730;2023-02-03T07:23:00;99096.34;;;2.26;94.28
19751;BME280;4663;49.120;9.730;2023-02-03T07:25:26;99114.91;;;2.40;93.43
19751;BME280;4663;49.120;9.730;2023-02-03T07:27:52;99116.50;;;2.17;93.38
19751;BME280;4663;49.120;9.730;2023-02-03T07:30:17;99123.22;;;2.23;94.07
19751;BME280;4663;49.120;9.730;2023-02-03T07:32:47;99120.56;;;2.36;93.08
19751;BME280;4663;49.120;9.730;2023-02-03T07:35:13;99134.09;;;2.20;93.72
19751;BME280;4663;49.120;9.730;2023-02-03T07:37:40;99127.63;;;2.37;93.09
19751;BME280;4663;49.120;9.730;2023-02-03T07:40:08;99134.00;;;2.34;93.39
19751;BME280;4663;49.120;9.730;2023-02-03T07:42:34;99135.06;;;2.19;93.41
19751;BME280;4663;49.120;9.730;2023-02-03T07:44:59;99140.91;;;2.24;94.31
19751;BME280;4663;49.120;9.730;2023-02-03T07:47:25;99147.13;;;2.24;93.24
19751;BME280;4663;49.120;9.730;2023-02-03T07:49:50;99141.31;;;2.18;93.53
19751;BME280;4663;49.120;9.730;2023-02-03T07:52:15;99157.31;;;2.18;94.19
19751;BME280;4663;49.120;9.730;2023-02-03T07:54:40;99155.75;;;2.28;93.64
19751;BME280;4663;49.120;9.730;2023-02-03T07:57:06;99159.38;;;2.27;93.43
19751;BME280;4663;49.120;9.730;2023-02-03T07:59:31;99167.59;;;2.50;93.14
19751;BME280;4663;49.120;9.730;2023-02-03T08:01:56;99170.56;;;2.32;92.02
19751;BME280;4663;49.120;9.730;2023-02-03T08:04:22;99160.03;;;2.57;92.29
19751;BME280;4663;49.120;9.730;2023-02-03T08:06:48;99153.09;;;2.41;92.14
19751;BME280;4663;49.120;9.730;2023-02-03T08:09:14;99162.16;;;2.77;91.76
19751;BME280;4663;49.120;9.730;2023-02-03T08:11:39;99154.59;;;2.58;92.41
19751;BME280;4663;49.120;9.730;2023-02-03T08:14:05;99149.69;;;2.52;91.62
19751;BME280;4663;49.120;9.730;2023-02-03T08:16:30;99170.66;;;2.31;93.10
19751;BME280;4663;49.120;9.730;2023-02-03T08:18:55;99164.19;;;2.48;92.54
19751;BME280;4663;49.120;9.730;2023-02-03T08:21:22;99161.53;;;2.61;92.13
19751;BME280;4663;49.120;9.730;2023-02-03T08:23:47;99161.72;;;2.45;93.81
19751;BME280;4663;49.120;9.730;2023-02-03T08:26:12;99147.31;;;2.47;91.90
19751;BME280;4663;49.120;9.730;2023-02-03T08:28:38;99142.22;;;2.57;91.88
19751;BME280;4663;49.120;9.730;2023-02-03T08:31:11;99159.59;;;2.76;91.18
19751;BME280;4663;49.120;9.730;2023-02-03T08:33:37;99152.78;;;2.72;91.00
19751;BME280;4663;49.120;9.730;2023-02-03T08:36:03;99151.28;;;2.67;91.06
19751;BME280;4663;49.120;9.730;2023-02-03T08:38:30;99152.97;;;2.69;90.49
19751;BME280;4663;49.120;9.730;2023-02-03T08:40:55;99136.88;;;2.83;90.10
19751;BME280;4663;49.120;9.730;2023-02-03T08:43:21;99138.34;;;2.74;90.98
19751;BME280;4663;49.120;9.730;2023-02-03T08:45:46;99142.88;;;2.61;91.35
19751;BME280;4663;49.120;9.730;2023-02-03T08:48:11;99136.16;;;2.55;91.28
19751;BME280;4663;49.120;9.730;2023-02-03T08:50:40;99160.56;;;2.49;92.04
19751;BME280;4663;49.120;9.730;2023-02-03T08:53:06;99149.47;;;2.55;92.67
19751;BME280;4663;49.120;9.730;2023-02-03T08:55:33;99142.00;;;2.60;91.86
19751;BME280;4663;49.120;9.730;2023-02-03T08:57:58;99151.16;;;2.43;93.75
19751;BME280;4663;49.120;9.730;2023-02-03T09:00:24;99136.97;;;2.69;91.70
19751;BME280;4663;49.120;9.730;2023-02-03T09:02:49;99139.84;;;2.78;91.86
19751;BME280;4663;49.120;9.730;2023-02-03T09:05:15;99135.69;;;2.61;91.90
19751;BME280;4663;49.120;9.730;2023-02-03T09:07:42;99155.31;;;2.86;92.27
19751;BME280;4663;49.120;9.730;2023-02-03T09:10:08;99152.91;;;2.44;92.78
19751;BME280;4663;49.120;9.730;2023-02-03T09:12:34;99150.75;;;2.62;92.90
19751;BME280;4663;49.120;9.730;2023-02-03T09:14:59;99153.06;;;2.80;91.22
19751;BME280;4663;49.120;9.730;2023-02-03T09:17:24;99144.22;;;2.40;91.34
19751;BME280;4663;49.120;9.730;2023-02-03T09:19:50;99163.84;;;2.78;91.53
19751;BME280;4663;49.120;9.730;2023-02-03T09:22:15;99151.06;;;2.45;91.58
19751;BME280;4663;49.120;9.730;2023-02-03T09:24:40;99150.84;;;2.74;90.55
19751;BME280;4663;49.120;9.730;2023-02-03T09:27:06;99158.63;;;2.90;90.96
19751;BME280;4663;49.120;9.730;2023-02-03T09:29:31;99149.47;;;2.55;90.69
19751;BME280;4663;49.120;9.730;2023-02-03T09:31:57;99144.66;;;2.73;90.78
19751;BME280;4663;49.120;9.730;2023-02-03T09:34:22;99145.94;;;2.80;90.33
19751;BME280;4663;49.120;9.730;2023-02-03T09:36:48;99144.22;;;2.79;91.68
19751;BME280;4663;49.120;9.730;2023-02-03T09:39:13;99135.28;;;2.67;90.92
19751;BME280;4663;49.120;9.730;2023-02-03T09:42:08;99142.50;;;2.78;91.09
19751;BME280;4663;49.120;9.730;2023-02-03T09:47:25;99135.03;;;2.97;90.51
19751;BME280;4663;49.120;9.730;2023-02-03T09:50:00;99130.94;;;3.04;89.99
19751;BME280;4663;49.120;9.730;2023-02-03T09:52:30;99123.13;;;3.14;89.87
19751;BME280;4663;49.120;9.730;2023-02-03T09:57:39;99129.69;;;2.97;91.37
19751;BME280;4663;49.120;9.730;2023-02-03T10:00:41;99131.03;;;3.15;90.55
19751;BME280;4663;49.120;9.730;2023-02-03T10:03:31;99134.75;;;3.26;89.75
19751;BME280;4663;49.120;9.730;2023-02-03T10:18:54;99143.41;;;3.16;89.05
19751;BME280;4663;49.120;9.730;2023-02-03T10:21:40;99147.75;;;2.93;90.50
19751;BME280;4663;49.120;9.730;2023-02-03T10:24:14;99153.53;;;3.24;90.60
19751;BME280;4663;49.120;9.730;2023-02-03T10:26:42;99156.91;;;3.02;89.48
19751;BME280;4663;49.120;9.730;2023-02-03T10:31:42;99152.78;;;2.72;90.20
19751;BME280;4663;49.120;9.730;2023-02-03T10:34:12;99156.72;;;3.29;91.60
19751;BME280;4663;49.120;9.730;2023-02-03T10:39:38;99153.19;;;2.91;90.74
19751;BME280;4663;49.120;9.730;2023-02-03T10:42:05;99140.88;;;3.39;90.14
19751;BME280;4663;49.120;9.730;2023-02-03T10:44:36;99136.09;;;3.44;90.47
19751;BME280;4663;49.120;9.730;2023-02-03T10:47:33;99107.19;;;3.25;89.30
19751;BME280;4663;49.120;9.730;2023-02-03T10:50:17;99127.00;;;3.47;89.85
19751;BME280;4663;49.120;9.730;2023-02-03T10:52:43;99117.97;;;3.61;88.63
19751;BME280;4663;49.120;9.730;2023-02-03T10:57:49;99091.34;;;3.48;89.59
19751;BME280;4663;49.120;9.730;2023-02-03T11:00:20;99093.06;;;3.36;89.50
19751;BME280;4663;49.120;9.730;2023-02-03T11:05:28;99089.81;;;3.68;89.08
19751;BME280;4663;49.120;9.730;2023-02-03T11:07:53;99084.31;;;3.59;88.68
19751;BME280;4663;49.120;9.730;2023-02-03T11:13:23;99073.34;;;3.75;88.65
19751;BME280;4663;49.120;9.730;2023-02-03T11:15:55;99069.88;;;3.61;89.47
19751;BME280;4663;49.120;9.730;2023-02-03T11:20:56;99078.69;;;3.75;88.37
19751;BME280;4663;49.120;9.730;2023-02-03T11:23:22;99088.66;;;3.84;88.74
19751;BME280;4663;49.120;9.730;2023-02-03T11:25:47;99088.72;;;3.60;88.37
19751;BME280;4663;49.120;9.730;2023-02-03T11:28:13;99093.56;;;3.90;88.65
19751;BME280;4663;49.120;9.730;2023-02-03T11:30:38;99078.50;;;3.89;88.83
19751;BME280;4663;49.120;9.730;2023-02-03T11:33:16;99073.13;;;3.78;88.75
19751;BME280;4663;49.120;9.730;2023-02-03T11:35:56;99058.19;;;3.26;90.93
19751;BME280;4663;49.120;9.730;2023-02-03T11:38:34;99069.34;;;3.44;89.62
19751;BME280;4663;49.120;9.730;2023-02-03T11:41:04;99049.22;;;3.52;91.59
19751;BME280;4663;49.120;9.730;2023-02-03T11:43:30;99050.84;;;3.66;90.58
19751;BME280;4663;49.120;9.730;2023-02-03T11:46:01;99036.59;;;3.29;88.17
19751;BME280;4663;49.120;9.730;2023-02-03T11:48:31;99054.94;;;3.59;88.99
19751;BME280;4663;49.120;9.730;2023-02-03T11:51:30;99054.94;;;3.59;89.32
19751;BME280;4663;49.120;9.730;2023-02-03T11:57:24;99044.47;;;3.80;90.07
19751;BME280;4663;49.120;9.730;2023-02-03T12:03:16;99016.22;;;3.53;88.92
19751;BME280;4663;49.120;9.730;2023-02-03T12:14:13;98984.34;;;3.38;88.91
19751;BME280;4663;49.120;9.730;2023-02-03T12:27:33;98979.00;;;3.38;91.73
19751;BME280;4663;49.120;9.730;2023-02-03T12:32:48;98970.94;;;3.51;90.62
19751;BME280;4663;49.120;9.730;2023-02-03T12:35:25;98980.69;;;3.39;92.00
19751;BME280;4663;49.120;9.730;2023-02-03T12:40:51;98979.72;;;3.40;91.07
19751;BME280;4663;49.120;9.730;2023-02-03T12:46:16;98986.41;;;3.10;92.25
19751;BME280;4663;49.120;9.730;2023-02-03T12:52:02;98983.09;;;3.31;93.21
19751;BME280;4663;49.120;9.730;2023-02-03T12:54:55;98973.38;;;3.54;93.28
19751;BME280;4663;49.120;9.730;2023-02-03T12:57:25;98971.31;;;3.47;92.99
19751;BME280;4663;49.120;9.730;2023-02-03T13:02:34;98968.06;;;3.30;91.42
19751;BME280;4663;49.120;9.730;2023-02-03T13:05:21;98963.16;;;3.48;92.57
19751;BME280;4663;49.120;9.730;2023-02-03T13:07:58;98953.75;;;3.31;92.59
19751;BME280;4663;49.120;9.730;2023-02-03T13:10:55;98933.38;;;3.30;92.66
19751;BME280;4663;49.120;9.730;2023-02-03T13:13:51;98930.59;;;3.43;91.49
19751;BME280;4663;49.120;9.730;2023-02-03T13:16:23;98918.50;;;3.50;91.84
19751;BME280;4663;49.120;9.730;2023-02-03T13:18:59;98920.31;;;3.14;93.27
19751;BME280;4663;49.120;9.730;2023-02-03T13:21:27;98910.53;;;3.37;92.83
19751;BME280;4663;49.120;9.730;2023-02-03T13:23:53;98900.53;;;3.16;91.69
19751;BME280;4663;49.120;9.730;2023-02-03T13:26:37;98906.94;;;3.38;93.08
19751;BME280;4663;49.120;9.730;2023-02-03T13:29:21;98889.75;;;3.54;92.54
19751;BME280;4663;49.120;9.730;2023-02-03T13:32:05;98892.25;;;3.44;93.01
19751;BME280;4663;49.120;9.730;2023-02-03T13:42:26;98915.72;;;3.63;91.54
19751;BME280;4663;49.120;9.730;2023-02-03T13:44:56;98920.81;;;3.55;92.20
19751;BME280;4663;49.120;9.730;2023-02-03T13:47:27;98928.63;;;3.34;92.23
19751;BME280;4663;49.120;9.730;2023-02-03T13:50:26;98941.22;;;3.56;93.10
19751;BME280;4663;49.120;9.730;2023-02-03T13:55:34;98929.50;;;3.34;94.19
19751;BME280;4663;49.120;9.730;2023-02-03T13:58:00;98924.81;;;3.49;93.27
19751;BME280;4663;49.120;9.730;2023-02-03T14:05:46;98935.19;;;3.65;91.65
19751;BME280;4663;49.120;9.730;2023-02-03T14:18:59;98927.38;;;3.26;92.36
19751;BME280;4663;49.120;9.730;2023-02-03T14:21:24;98940.19;;;3.10;92.63
19751;BME280;4663;49.120;9.730;2023-02-03T14:23:55;98944.94;;;3.06;94.73
19751;BME280;4663;49.120;9.730;2023-02-03T14:26:35;98935.94;;;3.07;92.65
19751;BME280;4663;49.120;9.730;2023-02-03T14:29:03;98930.69;;;3.41;92.36
19751;BME280;4663;49.120;9.730;2023-02-03T14:31:29;98903.03;;;3.31;92.87
19751;BME280;4663;49.120;9.730;2023-02-03T14:38:58;98931.66;;;3.40;93.92
19751;BME280;4663;49.120;9.730;2023-02-03T14:44:55;98943.88;;;3.20;94.11
19751;BME280;4663;49.120;9.730;2023-02-03T14:55:25;98910.31;;;3.40;93.01
19751;BME280;4663;49.120;9.730;2023-02-03T14:57:59;98910.06;;;3.32;92.65
19751;BME280;4663;49.120;9.730;2023-02-03T15:00:31;98914.53;;;3.31;93.73
19751;BME280;4663;49.120;9.730;2023-02-03T15:08:28;98916.84;;;3.36;91.05
19751;BME280;4663;49.120;9.730;2023-02-03T15:10:54;98916.19;;;3.46;91.93
19751;BME280;4663;49.120;9.730;2023-02-03T15:13:24;98928.25;;;3.27;94.10
19751;BME280;4663;49.120;9.730;2023-02-03T15:15:52;98920.00;;;3.30;94.44
19751;BME280;4663;49.120;9.730;2023-02-03T15:18:33;98939.25;;;3.22;93.43
19751;BME280;4663;49.120;9.730;2023-02-03T15:21:00;98939.44;;;3.43;92.99
19751;BME280;4663;49.120;9.730;2023-02-03T15:23:28;98934.47;;;3.39;93.55
19751;BME280;4663;49.120;9.730;2023-02-03T15:25:59;98952.44;;;3.12;93.75
19751;BME280;4663;49.120;9.730;2023-02-03T15:28:26;98933.28;;;3.07;94.69
19751;BME280;4663;49.120;9.730;2023-02-03T15:31:18;98937.94;;;3.28;94.10
19751;BME280;4663;49.120;9.730;2023-02-03T15:33:46;98954.16;;;3.13;94.81
19751;BME280;4663;49.120;9.730;2023-02-03T15:36:18;98950.69;;;3.24;94.27
19751;BME280;4663;49.120;9.730;2023-02-03T15:38:48;98934.47;;;3.03;94.48
19751;BME280;4663;49.120;9.730;2023-02-03T15:41:23;98939.16;;;3.24;94.89
19751;BME280;4663;49.120;9.730;2023-02-03T15:43:54;98944.09;;;3.17;94.19
19751;BME280;4663;49.120;9.730;2023-02-03T15:46:35;98944.59;;;2.86;96.28
19751;BME280;4663;49.120;9.730;2023-02-03T15:49:13;98951.25;;;3.16;95.20
19751;BME280;4663;49.120;9.730;2023-02-03T15:51:47;98939.75;;;3.16;95.33
19751;BME280;4663;49.120;9.730;2023-02-03T15:54:21;98950.06;;;3.21;95.37
19751;BME280;4663;49.120;9.730;2023-02-03T15:57:01;98954.03;;;3.15;95.30
19751;BME280;4663;49.120;9.730;2023-02-03T15:59:41;98954.94;;;3.27;95.03
19751;BME280;4663;49.120;9.730;2023-02-03T16:02:20;98950.66;;;2.88;96.60
19751;BME280;4663;49.120;9.730;2023-02-03T16:04:50;98963.19;;;2.75;96.08
19751;BME280;4663;49.120;9.730;2023-02-03T16:07:27;98948.25;;;2.97;95.93
19751;BME280;4663;49.120;9.730;2023-02-03T16:09:58;98955.34;;;3.09;95.96
19751;BME280;4663;49.120;9.730;2023-02-03T16:12:31;98966.28;;;3.06;95.93
19751;BME280;4663;49.120;9.730;2023-02-03T16:14:58;98949.22;;;2.96;95.48